sensor_id;sensor_type;location;lat;lon;timestamp;temperature;humidity
36374;DHT22;22399;51.346;12.372;2023-02-27T00:01:21;-1.80;99.90
36374;DHT22;22399;51.346;12.372;2023-02-27T00:03:49;-1.80;99.90
36374;DHT22;22399;51.346;12.372;2023-02-27T00:06:18;-1.70;99.90
36374;DHT22;22399;51.346;12.372;2023-02-27T00:08:46;-1.70;99.90
36374;DHT22;22399;51.346;12.372;2023-02-27T00:11:15;-1.70;99.90
36374;DHT22;22399;51.346;12.372;2023-02-27T00:13:43;-1.70;99.90
36374;DHT22;22399;51.346;12.372;2023-02-27T00:16:11;-1.70;99.90
36374;DHT22;22399;51.346;12.372;2023-02-27T00:18:42;-1.70;99.90
36374;DHT22;22399;51.346;12.372;2023-02-27T00:21:10;-1.70;99.90
36374;DHT22;22399;51.346;12.372;2023-02-27T00:23:38;-1.70;99.90
36374;DHT22;22399;51.346;12.372;2023-02-27T00:26:07;-1.80;99.90
36374;DHT22;22399;51.346;12.372;2023-02-27T00:28:35;-1.80;99.90
36374;DHT22;22399;51.346;12.372;2023-02-27T00:31:04;-1.90;99.90
36374;DHT22;22399;51.346;12.372;2023-02-27T00:33:32;-1.90;99.90
36374;DHT22;22399;51.346;12.372;2023-02-27T00:36:02;-1.90;99.90
36374;DHT22;22399;51.346;12.372;2023-02-27T00:38:31;-1.90;99.90
36374;DHT22;22399;51.346;12.372;2023-02-27T00:40:59;-2.00;99.90
36374;DHT22;22399;51.346;12.372;2023-02-27T00:43:28;-2.00;99.90
36374;DHT22;22399;51.346;12.372;2023-02-27T00:45:57;-2.10;99.90
36374;DHT22;22399;51.346;12.372;2023-02-27T00:48:27;-2.10;99.90
36374;DHT22;22399;51.346;12.372;2023-02-27T00:50:55;-2.10;99.90
36374;DHT22;22399;51.346;12.372;2023-02-27T00:53:25;-2.10;99.90
36374;DHT22;22399;51.346;12.372;2023-02-27T00:55:53;-2.20;99.90
36374;DHT22;22399;51.346;12.372;2023-02-27T00:58:21;-2.10;99.90
36374;DHT22;22399;51.346;12.372;2023-02-27T01:00:50;-2.20;99.90
36374;DHT22;22399;51.346;12.372;2023-02-27T01:03:18;-2.20;99.90
36374;DHT22;22399;51.346;12.372;2023-02-27T01:05:46;-2.20;99.90
36374;DHT22;22399;51.346;12.372;2023-02-27T01:08:16;-2.20;99.90
36374;DHT22;22399;51.346;12.372;2023-02-27T01:10:46;-2.20;99.90
36374;DHT22;22399;51.346;12.372;2023-02-27T01:13:14;-2.20;99.90
36374;DHT22;22399;51.346;12.372;2023-02-27T01:15:43;-2.20;99.90
36374;DHT22;22399;51.346;12.372;2023-02-27T01:18:11;-2.20;99.90
36374;DHT22;22399;51.346;12.372;2023-02-27T01:20:40;-2.20;99.90
36374;DHT22;22399;51.346;12.372;2023-02-27T01:23:11;-2.20;99.90
36374;DHT22;22399;51.346;12.372;2023-02-27T01:25:41;-2.20;99.90
36374;DHT22;22399;51.346;12.372;2023-02-27T01:28:11;-2.20;99.90
36374;DHT22;22399;51.346;12.372;2023-02-27T01:30:40;-2.30;99.90
36374;DHT22;22399;51.346;12.372;2023-02-27T01:33:08;-2.30;99.90
36374;DHT22;22399;51.346;12.372;2023-02-27T01:35:39;-2.20;99.90
36374;DHT22;22399;51.346;12.372;2023-02-27T01:38:07;-2.20;99.90
36374;DHT22;22399;51.346;12.372;2023-02-27T01:40:37;-2.20;99.90
36374;DHT22;22399;51.346;12.372;2023-02-27T01:43:09;-2.10;99.90
36374;DHT22;22399;51.346;12.372;2023-02-27T01:45:42;-2.00;99.90
36374;DHT22;22399;51.346;12.372;2023-02-27T01:48:17;-1.90;99.90
36374;DHT22;22399;51.346;12.372;2023-02-27T01:50:50;-1.80;99.90
36374;DHT22;22399;51.346;12.372;2023-02-27T01:53:20;-1.70;99.90
36374;DHT22;22399;51.346;12.372;2023-02-27T01:55:53;-1.60;99.90
36374;DHT22;22399;51.346;12.372;2023-02-27T01:58:24;-1.50;99.90
36374;DHT22;22399;51.346;12.372;2023-02-27T02:00:54;-1.30;99.90
36374;DHT22;22399;51.346;12.372;2023-02-27T02:03:28;-1.20;99.90
36374;DHT22;22399;51.346;12.372;2023-02-27T02:05:59;-1.10;99.90
36374;DHT22;22399;51.346;12.372;2023-02-27T02:08:31;-1.00;99.90
36374;DHT22;22399;51.346;12.372;2023-02-27T02:11:02;-0.90;99.90
36374;DHT22;22399;51.346;12.372;2023-02-27T02:13:31;-0.90;99.90
36374;DHT22;22399;51.346;12.372;2023-02-27T02:16:10;-0.80;99.90
36374;DHT22;22399;51.346;12.372;2023-02-27T02:18:46;-0.80;99.90
36374;DHT22;22399;51.346;12.372;2023-02-27T02:27:54;-0.60;99.90
36374;DHT22;22399;51.346;12.372;2023-02-27T02:33:55;-0.50;99.90
36374;DHT22;22399;51.346;12.372;2023-02-27T02:37:18;-0.50;99.90
36374;DHT22;22399;51.346;12.372;2023-02-27T02:40:14;-0.50;99.90
36374;DHT22;22399;51.346;12.372;2023-02-27T02:42:47;-0.40;99.90
36374;DHT22;22399;51.346;12.372;2023-02-27T02:45:25;-0.30;99.90
36374;DHT22;22399;51.346;12.372;2023-02-27T02:47:58;-0.30;99.90
36374;DHT22;22399;51.346;12.372;2023-02-27T02:50:34;-0.30;99.90
36374;DHT22;22399;51.346;12.372;2023-02-27T02:53:08;-0.30;99.90
36374;DHT22;22399;51.346;12.372;2023-02-27T02:55:43;-0.20;99.90
36374;DHT22;22399;51.346;12.372;2023-02-27T02:58:18;-0.30;99.90
36374;DHT22;22399;51.346;12.372;2023-02-27T03:00:53;-0.30;99.90
36374;DHT22;22399;51.346;12.372;2023-02-27T03:03:26;-0.30;99.90
36374;DHT22;22399;51.346;12.372;2023-02-27T03:05:59;-0.30;99.90
36374;DHT22;22399;51.346;12.372;2023-02-27T03:08:33;-0.30;99.90
36374;DHT22;22399;51.346;12.372;2023-02-27T03:11:05;-0.20;99.90
36374;DHT22;22399;51.346;12.372;2023-02-27T03:13:37;-0.20;99.90
36374;DHT22;22399;51.346;12.372;2023-02-27T03:16:11;-0.20;99.90
36374;DHT22;22399;51.346;12.372;2023-02-27T03:18:43;-0.20;99.90
36374;DHT22;22399;51.346;12.372;2023-02-27T03:21:19;-0.20;99.90
36374;DHT22;22399;51.346;12.372;2023-02-27T03:23:52;-0.20;99.90
36374;DHT22;22399;51.346;12.372;2023-02-27T03:26:28;-0.20;99.90
36374;DHT22;22399;51.346;12.372;2023-02-27T03:29:02;-0.20;99.90
36374;DHT22;22399;51.346;12.372;2023-02-27T03:31:35;-0.20;99.90
36374;DHT22;22399;51.346;12.372;2023-02-27T03:34:11;-0.20;99.90
36374;DHT22;22399;51.346;12.372;2023-02-27T03:36:45;-0.10;99.90
36374;DHT22;22399;51.346;12.372;2023-02-27T03:39:28;-0.20;99.90
36374;DHT22;22399;51.346;12.372;2023-02-27T03:42:11;-0.10;99.90
36374;DHT22;22399;51.346;12.372;2023-02-27T03:45:10;-0.20;99.90
36374;DHT22;22399;51.346;12.372;2023-02-27T03:47:40;-0.20;99.90
36374;DHT22;22399;51.346;12.372;2023-02-27T03:50:09;-0.20;99.90
36374;DHT22;22399;51.346;12.372;2023-02-27T03:52:38;-0.20;99.90
36374;DHT22;22399;51.346;12.372;2023-02-27T03:55:10;-0.20;99.90
36374;DHT22;22399;51.346;12.372;2023-02-27T03:57:41;-0.20;99.90
36374;DHT22;22399;51.346;12.372;2023-02-27T04:00:12;-0.20;99.90
36374;DHT22;22399;51.346;12.372;2023-02-27T04:02:43;-0.20;99.90
36374;DHT22;22399;51.346;12.372;2023-02-27T04:05:15;-0.20;99.90
36374;DHT22;22399;51.346;12.372;2023-02-27T04:08:03;-0.20;99.90
36374;DHT22;22399;51.346;12.372;2023-02-27T04:10:48;-0.10;99.90
36374;DHT22;22399;51.346;12.372;2023-02-27T04:13:38;-0.10;99.90
36374;DHT22;22399;51.346;12.372;2023-02-27T04:16:44;-0.10;99.90
36374;DHT22;22399;51.346;12.372;2023-02-27T04:19:23;0.00;99.90
36374;DHT22;22399;51.346;12.372;2023-02-27T04:22:02;0.00;99.90
36374;DHT22;22399;51.346;12.372;2023-02-27T04:24:39;0.00;99.90
36374;DHT22;22399;51.346;12.372;2023-02-27T04:27:17;0.10;99.90
36374;DHT22;22399;51.346;12.372;2023-02-27T04:29:53;0.10;99.90
36374;DHT22;22399;51.346;12.372;2023-02-27T04:32:29;0.10;99.90
36374;DHT22;22399;51.346;12.372;2023-02-27T04:35:03;0.10;99.90
36374;DHT22;22399;51.346;12.372;2023-02-27T04:37:41;0.10;99.90
36374;DHT22;22399;51.346;12.372;2023-02-27T04:40:14;0.10;99.90
36374;DHT22;22399;51.346;12.372;2023-02-27T04:42:46;0.10;99.90
36374;DHT22;22399;51.346;12.372;2023-02-27T04:45:21;0.10;99.90
36374;DHT22;22399;51.346;12.372;2023-02-27T04:47:54;0.20;99.90
36374;DHT22;22399;51.346;12.372;2023-02-27T04:50:27;0.20;99.90
36374;DHT22;22399;51.346;12.372;2023-02-27T04:53:02;0.20;99.90
36374;DHT22;22399;51.346;12.372;2023-02-27T04:55:36;0.30;99.90
36374;DHT22;22399;51.346;12.372;2023-02-27T04:58:10;0.30;99.90
36374;DHT22;22399;51.346;12.372;2023-02-27T05:00:45;0.30;99.90
36374;DHT22;22399;51.346;12.372;2023-02-27T05:03:18;0.30;99.90
36374;DHT22;22399;51.346;12.372;2023-02-27T05:05:49;0.30;99.90
36374;DHT22;22399;51.346;12.372;2023-02-27T05:08:25;0.30;99.90
36374;DHT22;22399;51.346;12.372;2023-02-27T05:11:00;0.30;99.90
36374;DHT22;22399;51.346;12.372;2023-02-27T05:13:34;0.30;99.90
36374;DHT22;22399;51.346;12.372;2023-02-27T05:16:10;0.20;99.90
36374;DHT22;22399;51.346;12.372;2023-02-27T05:18:44;0.20;99.90
36374;DHT22;22399;51.346;12.372;2023-02-27T05:21:22;0.20;99.90
36374;DHT22;22399;51.346;12.372;2023-02-27T05:24:05;0.20;99.90
36374;DHT22;22399;51.346;12.372;2023-02-27T05:27:06;0.10;99.90
36374;DHT22;22399;51.346;12.372;2023-02-27T05:29:41;0.00;99.90
36374;DHT22;22399;51.346;12.372;2023-02-27T05:32:20;-0.10;99.90
36374;DHT22;22399;51.346;12.372;2023-02-27T05:34:51;-0.30;99.90
36374;DHT22;22399;51.346;12.372;2023-02-27T05:37:25;-0.40;99.90
36374;DHT22;22399;51.346;12.372;2023-02-27T05:39:56;-0.60;99.90
36374;DHT22;22399;51.346;12.372;2023-02-27T05:42:29;-0.70;99.90
36374;DHT22;22399;51.346;12.372;2023-02-27T05:45:02;-0.80;99.90
36374;DHT22;22399;51.346;12.372;2023-02-27T05:47:36;-0.90;99.90
36374;DHT22;22399;51.346;12.372;2023-02-27T05:50:10;-0.90;99.90
36374;DHT22;22399;51.346;12.372;2023-02-27T05:52:40;-1.00;99.90
36374;DHT22;22399;51.346;12.372;2023-02-27T05:55:13;-1.00;99.90
36374;DHT22;22399;51.346;12.372;2023-02-27T05:57:48;-0.90;99.90
36374;DHT22;22399;51.346;12.372;2023-02-27T06:00:21;-0.90;99.90
36374;DHT22;22399;51.346;12.372;2023-02-27T06:02:52;-0.80;99.90
36374;DHT22;22399;51.346;12.372;2023-02-27T06:05:23;-0.80;99.90
36374;DHT22;22399;51.346;12.372;2023-02-27T06:07:52;-0.80;99.90
36374;DHT22;22399;51.346;12.372;2023-02-27T06:10:21;-0.70;99.90
36374;DHT22;22399;51.346;12.372;2023-02-27T06:12:49;-0.70;99.90
36374;DHT22;22399;51.346;12.372;2023-02-27T06:15:18;-0.70;99.90
36374;DHT22;22399;51.346;12.372;2023-02-27T06:17:46;-0.80;99.90
36374;DHT22;22399;51.346;12.372;2023-02-27T06:20:16;-0.80;99.90
36374;DHT22;22399;51.346;12.372;2023-02-27T06:22:45;-0.80;99.90
36374;DHT22;22399;51.346;12.372;2023-02-27T06:25:13;-0.70;99.90
36374;DHT22;22399;51.346;12.372;2023-02-27T06:27:41;-0.70;99.90
36374;DHT22;22399;51.346;12.372;2023-02-27T06:30:10;-0.70;99.90
36374;DHT22;22399;51.346;12.372;2023-02-27T06:32:39;-0.70;99.90
36374;DHT22;22399;51.346;12.372;2023-02-27T06:35:08;-0.70;99.90
36374;DHT22;22399;51.346;12.372;2023-02-27T06:37:38;-0.60;99.90
36374;DHT22;22399;51.346;12.372;2023-02-27T06:40:08;-0.60;99.90
36374;DHT22;22399;51.346;12.372;2023-02-27T06:42:38;-0.50;99.90
36374;DHT22;22399;51.346;12.372;2023-02-27T06:45:08;-0.40;99.90
36374;DHT22;22399;51.346;12.372;2023-02-27T06:47:37;-0.40;99.90
36374;DHT22;22399;51.346;12.372;2023-02-27T06:50:07;-0.30;99.90
36374;DHT22;22399;51.346;12.372;2023-02-27T06:52:39;-0.20;99.90
36374;DHT22;22399;51.346;12.372;2023-02-27T06:55:08;-0.10;99.90
36374;DHT22;22399;51.346;12.372;2023-02-27T06:57:37;0.00;99.90
36374;DHT22;22399;51.346;12.372;2023-02-27T07:00:07;0.10;99.90
36374;DHT22;22399;51.346;12.372;2023-02-27T07:02:38;0.20;99.90
36374;DHT22;22399;51.346;12.372;2023-02-27T07:05:08;0.30;99.90
36374;DHT22;22399;51.346;12.372;2023-02-27T07:07:39;0.30;99.90
36374;DHT22;22399;51.346;12.372;2023-02-27T07:10:10;0.40;99.90
36374;DHT22;22399;51.346;12.372;2023-02-27T07:12:40;0.50;99.90
36374;DHT22;22399;51.346;12.372;2023-02-27T07:15:09;0.60;99.90
36374;DHT22;22399;51.346;12.372;2023-02-27T07:17:38;0.60;99.90
36374;DHT22;22399;51.346;12.372;2023-02-27T07:20:08;0.60;99.90
36374;DHT22;22399;51.346;12.372;2023-02-27T07:22:39;0.60;99.90
36374;DHT22;22399;51.346;12.372;2023-02-27T07:25:08;0.70;99.90
36374;DHT22;22399;51.346;12.372;2023-02-27T07:27:36;0.70;99.90
36374;DHT22;22399;51.346;12.372;2023-02-27T07:30:06;0.70;99.90
36374;DHT22;22399;51.346;12.372;2023-02-27T07:32:35;0.90;99.90
36374;DHT22;22399;51.346;12.372;2023-02-27T07:35:04;1.00;99.90
36374;DHT22;22399;51.346;12.372;2023-02-27T07:37:33;1.10;99.90
36374;DHT22;22399;51.346;12.372;2023-02-27T07:40:03;1.30;99.90
36374;DHT22;22399;51.346;12.372;2023-02-27T07:42:33;1.60;99.90
36374;DHT22;22399;51.346;12.372;2023-02-27T07:45:03;1.80;99.90
36374;DHT22;22399;51.346;12.372;2023-02-27T07:47:31;1.90;99.90
36374;DHT22;22399;51.346;12.372;2023-02-27T07:50:00;2.20;99.90
36374;DHT22;22399;51.346;12.372;2023-02-27T07:52:31;3.00;99.90
36374;DHT22;22399;51.346;12.372;2023-02-27T07:54:59;3.30;99.90
36374;DHT22;22399;51.346;12.372;2023-02-27T07:57:28;3.40;99.90
36374;DHT22;22399;51.346;12.372;2023-02-27T07:59:57;3.60;99.90
36374;DHT22;22399;51.346;12.372;2023-02-27T08:02:25;3.70;99.90
36374;DHT22;22399;51.346;12.372;2023-02-27T08:04:54;3.70;99.90
36374;DHT22;22399;51.346;12.372;2023-02-27T08:07:22;3.80;99.90
36374;DHT22;22399;51.346;12.372;2023-02-27T08:09:51;4.00;99.90
36374;DHT22;22399;51.346;12.372;2023-02-27T08:12:19;4.30;99.90
36374;DHT22;22399;51.346;12.372;2023-02-27T08:14:49;4.70;99.90
36374;DHT22;22399;51.346;12.372;2023-02-27T08:17:18;5.30;99.90
36374;DHT22;22399;51.346;12.372;2023-02-27T08:19:46;5.80;99.90
36374;DHT22;22399;51.346;12.372;2023-02-27T08:22:15;5.70;99.90
36374;DHT22;22399;51.346;12.372;2023-02-27T08:24:43;5.70;99.90
36374;DHT22;22399;51.346;12.372;2023-02-27T08:27:12;5.50;99.90
36374;DHT22;22399;51.346;12.372;2023-02-27T08:29:41;5.20;99.90
36374;DHT22;22399;51.346;12.372;2023-02-27T08:32:13;4.60;99.90
36374;DHT22;22399;51.346;12.372;2023-02-27T08:34:41;4.10;99.90
36374;DHT22;22399;51.346;12.372;2023-02-27T08:37:09;3.80;99.90
36374;DHT22;22399;51.346;12.372;2023-02-27T08:39:38;3.70;99.90
36374;DHT22;22399;51.346;12.372;2023-02-27T08:42:06;3.70;99.90
36374;DHT22;22399;51.346;12.372;2023-02-27T08:44:35;3.80;99.90
36374;DHT22;22399;51.346;12.372;2023-02-27T08:47:03;3.70;99.90
36374;DHT22;22399;51.346;12.372;2023-02-27T08:49:33;3.70;99.90
36374;DHT22;22399;51.346;12.372;2023-02-27T08:52:01;3.60;99.90
36374;DHT22;22399;51.346;12.372;2023-02-27T08:54:31;3.50;99.90
36374;DHT22;22399;51.346;12.372;2023-02-27T08:56:59;3.40;99.90
36374;DHT22;22399;51.346;12.372;2023-02-27T08:59:28;3.50;99.90
36374;DHT22;22399;51.346;12.372;2023-02-27T09:01:56;3.60;99.90
36374;DHT22;22399;51.346;12.372;2023-02-27T09:04:25;3.60;99.90
36374;DHT22;22399;51.346;12.372;2023-02-27T09:06:54;3.70;99.90
36374;DHT22;22399;51.346;12.372;2023-02-27T09:09:24;3.80;99.90
36374;DHT22;22399;51.346;12.372;2023-02-27T09:11:54;3.80;99.90
36374;DHT22;22399;51.346;12.372;2023-02-27T09:14:23;3.80;99.90
36374;DHT22;22399;51.346;12.372;2023-02-27T09:16:51;3.90;99.90
36374;DHT22;22399;51.346;12.372;2023-02-27T09:19:20;4.00;99.90
36374;DHT22;22399;51.346;12.372;2023-02-27T09:21:48;3.90;99.90
36374;DHT22;22399;51.346;12.372;2023-02-27T09:24:17;3.80;99.90
36374;DHT22;22399;51.346;12.372;2023-02-27T09:26:47;3.70;99.90
36374;DHT22;22399;51.346;12.372;2023-02-27T09:29:16;3.70;99.90
36374;DHT22;22399;51.346;12.372;2023-02-27T09:31:44;3.70;99.90
36374;DHT22;22399;51.346;12.372;2023-02-27T09:34:13;3.80;99.90
36374;DHT22;22399;51.346;12.372;2023-02-27T09:36:41;3.90;99.90
36374;DHT22;22399;51.346;12.372;2023-02-27T09:39:10;4.00;99.90
36374;DHT22;22399;51.346;12.372;2023-02-27T09:41:53;4.40;99.90
36374;DHT22;22399;51.346;12.372;2023-02-27T09:44:32;4.80;99.90
36374;DHT22;22399;51.346;12.372;2023-02-27T09:47:16;4.90;99.90
36374;DHT22;22399;51.346;12.372;2023-02-27T09:49:51;4.90;99.90
36374;DHT22;22399;51.346;12.372;2023-02-27T09:52:21;4.90;99.90
36374;DHT22;22399;51.346;12.372;2023-02-27T09:54:50;4.90;99.90
36374;DHT22;22399;51.346;12.372;2023-02-27T09:57:29;5.10;99.90
36374;DHT22;22399;51.346;12.372;2023-02-27T10:00:05;4.90;99.90
36374;DHT22;22399;51.346;12.372;2023-02-27T10:02:43;4.90;99.90
36374;DHT22;22399;51.346;12.372;2023-02-27T10:05:21;5.10;99.90
36374;DHT22;22399;51.346;12.372;2023-02-27T10:07:57;5.30;99.90
36374;DHT22;22399;51.346;12.372;2023-02-27T10:10:31;5.60;99.90
36374;DHT22;22399;51.346;12.372;2023-02-27T10:15:57;5.80;99.90
36374;DHT22;22399;51.346;12.372;2023-02-27T10:18:29;6.20;99.90
36374;DHT22;22399;51.346;12.372;2023-02-27T10:21:00;6.40;99.90
36374;DHT22;22399;51.346;12.372;2023-02-27T10:23:34;6.70;99.90
36374;DHT22;22399;51.346;12.372;2023-02-27T10:26:04;6.90;99.90
36374;DHT22;22399;51.346;12.372;2023-02-27T10:28:34;6.90;99.90
36374;DHT22;22399;51.346;12.372;2023-02-27T10:31:11;6.80;99.90
36374;DHT22;22399;51.346;12.372;2023-02-27T10:33:46;6.80;99.90
36374;DHT22;22399;51.346;12.372;2023-02-27T10:36:15;6.70;99.90
36374;DHT22;22399;51.346;12.372;2023-02-27T10:39:00;6.60;99.90
36374;DHT22;22399;51.346;12.372;2023-02-27T10:41:33;6.20;99.90
36374;DHT22;22399;51.346;12.372;2023-02-27T10:44:03;5.90;99.90
36374;DHT22;22399;51.346;12.372;2023-02-27T10:46:36;5.70;99.90
36374;DHT22;22399;51.346;12.372;2023-02-27T10:49:13;5.60;99.90
36374;DHT22;22399;51.346;12.372;2023-02-27T10:52:03;5.40;99.90
36374;DHT22;22399;51.346;12.372;2023-02-27T10:54:32;5.40;99.90
36374;DHT22;22399;51.346;12.372;2023-02-27T10:57:02;5.50;99.90
36374;DHT22;22399;51.346;12.372;2023-02-27T10:59:35;5.50;99.90
36374;DHT22;22399;51.346;12.372;2023-02-27T11:02:06;5.50;99.90
36374;DHT22;22399;51.346;12.372;2023-02-27T11:04:49;5.50;99.90
36374;DHT22;22399;51.346;12.372;2023-02-27T11:07:29;5.50;99.90
36374;DHT22;22399;51.346;12.372;2023-02-27T11:10:01;5.10;99.90
36374;DHT22;22399;51.346;12.372;2023-02-27T11:12:31;4.90;99.90
36374;DHT22;22399;51.346;12.372;2023-02-27T11:15:03;4.80;99.90
36374;DHT22;22399;51.346;12.372;2023-02-27T11:17:47;5.00;99.90
36374;DHT22;22399;51.346;12.372;2023-02-27T11:20:32;5.20;99.90
36374;DHT22;22399;51.346;12.372;2023-02-27T11:23:04;5.20;99.90
36374;DHT22;22399;51.346;12.372;2023-02-27T11:25:33;5.00;99.90
36374;DHT22;22399;51.346;12.372;2023-02-27T11:28:17;4.80;99.90
36374;DHT22;22399;51.346;12.372;2023-02-27T11:30:57;5.10;99.90
36374;DHT22;22399;51.346;12.372;2023-02-27T11:33:28;5.50;99.90
36374;DHT22;22399;51.346;12.372;2023-02-27T11:35:57;5.80;99.90
36374;DHT22;22399;51.346;12.372;2023-02-27T11:38:28;6.10;99.90
36374;DHT22;22399;51.346;12.372;2023-02-27T11:40:58;6.40;99.90
36374;DHT22;22399;51.346;12.372;2023-02-27T11:43:29;6.60;99.90
36374;DHT22;22399;51.346;12.372;2023-02-27T11:46:02;6.70;99.90
36374;DHT22;22399;51.346;12.372;2023-02-27T11:48:52;6.40;99.90
36374;DHT22;22399;51.346;12.372;2023-02-27T11:51:31;6.60;99.90
36374;DHT22;22399;51.346;12.372;2023-02-27T11:54:13;6.90;99.90
36374;DHT22;22399;51.346;12.372;2023-02-27T11:56:45;7.10;99.90
36374;DHT22;22399;51.346;12.372;2023-02-27T11:59:26;7.10;99.90
36374;DHT22;22399;51.346;12.372;2023-02-27T12:02:02;6.90;99.90
36374;DHT22;22399;51.346;12.372;2023-02-27T12:04:46;6.50;99.90
36374;DHT22;22399;51.346;12.372;2023-02-27T12:07:21;6.50;99.90
36374;DHT22;22399;51.346;12.372;2023-02-27T12:09:58;6.90;99.90
36374;DHT22;22399;51.346;12.372;2023-02-27T12:12:30;7.20;99.90
36374;DHT22;22399;51.346;12.372;2023-02-27T12:15:08;6.90;99.90
36374;DHT22;22399;51.346;12.372;2023-02-27T12:17:46;6.90;99.90
36374;DHT22;22399;51.346;12.372;2023-02-27T12:20:33;6.80;99.90
36374;DHT22;22399;51.346;12.372;2023-02-27T12:23:08;6.80;99.90
36374;DHT22;22399;51.346;12.372;2023-02-27T12:25:44;6.70;99.90
36374;DHT22;22399;51.346;12.372;2023-02-27T12:28:26;6.90;99.90
36374;DHT22;22399;51.346;12.372;2023-02-27T12:31:10;6.90;99.90
36374;DHT22;22399;51.346;12.372;2023-02-27T12:33:47;6.90;99.90
36374;DHT22;22399;51.346;12.372;2023-02-27T12:36:16;6.90;99.90
36374;DHT22;22399;51.346;12.372;2023-02-27T12:38:45;7.00;99.90
36374;DHT22;22399;51.346;12.372;2023-02-27T12:41:32;7.10;99.90
36374;DHT22;22399;51.346;12.372;2023-02-27T12:47:06;7.20;99.90
36374;DHT22;22399;51.346;12.372;2023-02-27T12:49:44;7.40;99.90
36374;DHT22;22399;51.346;12.372;2023-02-27T12:52:25;7.30;99.90
36374;DHT22;22399;51.346;12.372;2023-02-27T12:55:02;7.20;99.90
36374;DHT22;22399;51.346;12.372;2023-02-27T12:57:43;6.80;99.90
36374;DHT22;22399;51.346;12.372;2023-02-27T13:00:16;6.80;99.90
36374;DHT22;22399;51.346;12.372;2023-02-27T13:02:55;6.80;99.90
36374;DHT22;22399;51.346;12.372;2023-02-27T13:05:35;6.90;99.90
36374;DHT22;22399;51.346;12.372;2023-02-27T13:08:19;6.40;99.90
36374;DHT22;22399;51.346;12.372;2023-02-27T13:10:52;6.40;99.90
36374;DHT22;22399;51.346;12.372;2023-02-27T13:13:29;6.30;99.90
36374;DHT22;22399;51.346;12.372;2023-02-27T13:19:12;6.00;99.90
36374;DHT22;22399;51.346;12.372;2023-02-27T13:21:48;5.90;99.90
36374;DHT22;22399;51.346;12.372;2023-02-27T13:24:23;5.80;99.90
36374;DHT22;22399;51.346;12.372;2023-02-27T13:26:59;5.80;99.90
36374;DHT22;22399;51.346;12.372;2023-02-27T13:29:35;6.20;99.90
36374;DHT22;22399;51.346;12.372;2023-02-27T13:32:20;6.50;99.90
36374;DHT22;22399;51.346;12.372;2023-02-27T13:35:16;6.60;99.90
36374;DHT22;22399;51.346;12.372;2023-02-27T13:37:52;6.90;99.90
36374;DHT22;22399;51.346;12.372;2023-02-27T13:40:33;7.00;99.90
36374;DHT22;22399;51.346;12.372;2023-02-27T13:43:04;6.70;99.90
36374;DHT22;22399;51.346;12.372;2023-02-27T13:45:48;6.50;99.90
36374;DHT22;22399;51.346;12.372;2023-02-27T13:48:36;6.60;99.90
36374;DHT22;22399;51.346;12.372;2023-02-27T13:51:09;6.50;99.90
36374;DHT22;22399;51.346;12.372;2023-02-27T13:53:40;6.40;99.90
36374;DHT22;22399;51.346;12.372;2023-02-27T13:56:19;6.30;99.90
36374;DHT22;22399;51.346;12.372;2023-02-27T13:58:48;6.20;99.90
36374;DHT22;22399;51.346;12.372;2023-02-27T14:01:24;6.00;99.90
36374;DHT22;22399;51.346;12.372;2023-02-27T14:03:56;5.90;99.90
36374;DHT22;22399;51.346;12.372;2023-02-27T14:06:29;5.80;99.90
36374;DHT22;22399;51.346;12.372;2023-02-27T14:08:59;5.60;99.90
36374;DHT22;22399;51.346;12.372;2023-02-27T14:11:50;5.40;99.90
36374;DHT22;22399;51.346;12.372;2023-02-27T14:14:42;5.30;99.90
36374;DHT22;22399;51.346;12.372;2023-02-27T14:17:13;5.30;99.90
36374;DHT22;22399;51.346;12.372;2023-02-27T14:19:54;5.20;99.90
36374;DHT22;22399;51.346;12.372;2023-02-27T14:22:37;5.30;99.90
36374;DHT22;22399;51.346;12.372;2023-02-27T14:25:21;5.20;99.90
36374;DHT22;22399;51.346;12.372;2023-02-27T14:27:53;5.20;99.90
36374;DHT22;22399;51.346;12.372;2023-02-27T14:30:35;5.30;99.90
36374;DHT22;22399;51.346;12.372;2023-02-27T14:33:17;5.10;99.90
36374;DHT22;22399;51.346;12.372;2023-02-27T14:36:06;5.00;99.90
36374;DHT22;22399;51.346;12.372;2023-02-27T14:38:36;4.80;99.90
36374;DHT22;22399;51.346;12.372;2023-02-27T14:41:16;4.70;99.90
36374;DHT22;22399;51.346;12.372;2023-02-27T14:43:51;4.60;99.90
36374;DHT22;22399;51.346;12.372;2023-02-27T14:46:25;4.20;99.90
36374;DHT22;22399;51.346;12.372;2023-02-27T14:48:56;3.70;99.90
36374;DHT22;22399;51.346;12.372;2023-02-27T14:51:25;3.30;99.90
36374;DHT22;22399;51.346;12.372;2023-02-27T14:54:02;3.00;99.90
36374;DHT22;22399;51.346;12.372;2023-02-27T14:56:33;2.70;99.90
36374;DHT22;22399;51.346;12.372;2023-02-27T14:59:02;2.50;99.90
36374;DHT22;22399;51.346;12.372;2023-02-27T15:01:43;2.40;99.90
36374;DHT22;22399;51.346;12.372;2023-02-27T15:04:15;2.30;99.90
36374;DHT22;22399;51.346;12.372;2023-02-27T15:06:47;2.40;99.90
36374;DHT22;22399;51.346;12.372;2023-02-27T15:09:20;2.40;99.90
36374;DHT22;22399;51.346;12.372;2023-02-27T15:11:52;2.50;99.90
36374;DHT22;22399;51.346;12.372;2023-02-27T15:14:33;2.70;99.90
36374;DHT22;22399;51.346;12.372;2023-02-27T15:17:12;2.80;99.90
36374;DHT22;22399;51.346;12.372;2023-02-27T15:19:45;2.80;99.90
36374;DHT22;22399;51.346;12.372;2023-02-27T15:22:17;2.90;99.90
36374;DHT22;22399;51.346;12.372;2023-02-27T15:25:05;3.00;99.90
36374;DHT22;22399;51.346;12.372;2023-02-27T15:27:35;3.10;99.90
36374;DHT22;22399;51.346;12.372;2023-02-27T15:30:16;3.10;99.90
36374;DHT22;22399;51.346;12.372;2023-02-27T15:32:46;3.20;99.90
36374;DHT22;22399;51.346;12.372;2023-02-27T15:35:18;3.20;99.90
36374;DHT22;22399;51.346;12.372;2023-02-27T15:37:50;3.30;99.90
36374;DHT22;22399;51.346;12.372;2023-02-27T15:40:21;3.40;99.90
36374;DHT22;22399;51.346;12.372;2023-02-27T15:42:51;3.30;99.90
36374;DHT22;22399;51.346;12.372;2023-02-27T15:45:23;3.40;99.90
36374;DHT22;22399;51.346;12.372;2023-02-27T15:47:52;3.30;99.90
36374;DHT22;22399;51.346;12.372;2023-02-27T15:50:26;3.30;99.90
36374;DHT22;22399;51.346;12.372;2023-02-27T15:53:01;3.30;99.90
36374;DHT22;22399;51.346;12.372;2023-02-27T15:55:31;3.30;99.90
36374;DHT22;22399;51.346;12.372;2023-02-27T15:58:02;3.20;99.90
36374;DHT22;22399;51.346;12.372;2023-02-27T16:00:33;3.30;99.90
36374;DHT22;22399;51.346;12.372;2023-02-27T16:03:04;3.30;99.90
36374;DHT22;22399;51.346;12.372;2023-02-27T16:05:35;3.30;99.90
36374;DHT22;22399;51.346;12.372;2023-02-27T16:08:04;3.20;99.90
36374;DHT22;22399;51.346;12.372;2023-02-27T16:10:35;3.10;99.90
36374;DHT22;22399;51.346;12.372;2023-02-27T16:13:24;3.00;99.90
36374;DHT22;22399;51.346;12.372;2023-02-27T16:16:00;3.00;99.90
36374;DHT22;22399;51.346;12.372;2023-02-27T16:18:33;3.00;99.90
36374;DHT22;22399;51.346;12.372;2023-02-27T16:21:12;3.00;99.90
36374;DHT22;22399;51.346;12.372;2023-02-27T16:23:41;2.90;99.90